sensor_id;sensor_type;location;lat;lon;timestamp;temperature;humidity
64685;DHT22;51109;47.414;18.954;2022-12-18T00:01:19;-2.00;99.90
64685;DHT22;51109;47.414;18.954;2022-12-18T00:03:46;-2.00;99.90
64685;DHT22;51109;47.414;18.954;2022-12-18T00:06:12;-2.00;99.90
64685;DHT22;51109;47.414;18.954;2022-12-18T00:08:43;-2.00;99.90
64685;DHT22;51109;47.414;18.954;2022-12-18T00:11:12;-2.00;99.90
64685;DHT22;51109;47.414;18.954;2022-12-18T00:13:39;-2.00;99.90
64685;DHT22;51109;47.414;18.954;2022-12-18T00:16:10;-2.00;99.90
64685;DHT22;51109;47.414;18.954;2022-12-18T00:18:36;-2.00;99.90
64685;DHT22;51109;47.414;18.954;2022-12-18T00:21:04;-2.00;99.90
64685;DHT22;51109;47.414;18.954;2022-12-18T00:23:32;-2.00;99.90
64685;DHT22;51109;47.414;18.954;2022-12-18T00:26:02;-2.00;99.90
64685;DHT22;51109;47.414;18.954;2022-12-18T00:28:28;-2.00;99.90
64685;DHT22;51109;47.414;18.954;2022-12-18T00:31:05;-2.00;99.90
64685;DHT22;51109;47.414;18.954;2022-12-18T00:33:32;-2.00;99.90
64685;DHT22;51109;47.414;18.954;2022-12-18T00:36:13;-2.00;99.90
64685;DHT22;51109;47.414;18.954;2022-12-18T00:38:40;-2.00;99.90
64685;DHT22;51109;47.414;18.954;2022-12-18T00:41:09;-2.00;99.90
64685;DHT22;51109;47.414;18.954;2022-12-18T00:43:36;-2.00;99.90
64685;DHT22;51109;47.414;18.954;2022-12-18T00:46:02;-2.00;99.90
64685;DHT22;51109;47.414;18.954;2022-12-18T00:48:28;-2.00;99.90
64685;DHT22;51109;47.414;18.954;2022-12-18T00:50:54;-2.00;99.90
64685;DHT22;51109;47.414;18.954;2022-12-18T00:53:20;-2.00;99.90
64685;DHT22;51109;47.414;18.954;2022-12-18T00:55:46;-2.00;99.90
64685;DHT22;51109;47.414;18.954;2022-12-18T00:58:15;-2.00;99.90
64685;DHT22;51109;47.414;18.954;2022-12-18T01:00:42;-2.10;99.90
64685;DHT22;51109;47.414;18.954;2022-12-18T01:03:10;-2.10;99.90
64685;DHT22;51109;47.414;18.954;2022-12-18T01:05:42;-2.10;99.90
64685;DHT22;51109;47.414;18.954;2022-12-18T01:08:09;-2.10;99.90
64685;DHT22;51109;47.414;18.954;2022-12-18T01:10:35;-2.10;99.90
64685;DHT22;51109;47.414;18.954;2022-12-18T01:13:00;-2.10;99.90
64685;DHT22;51109;47.414;18.954;2022-12-18T01:15:26;-2.20;99.90
64685;DHT22;51109;47.414;18.954;2022-12-18T01:17:52;-2.20;99.90
64685;DHT22;51109;47.414;18.954;2022-12-18T01:20:19;-2.20;99.90
64685;DHT22;51109;47.414;18.954;2022-12-18T01:22:44;-2.20;99.90
64685;DHT22;51109;47.414;18.954;2022-12-18T01:25:11;-2.20;99.90
64685;DHT22;51109;47.414;18.954;2022-12-18T01:27:36;-2.20;99.90
64685;DHT22;51109;47.414;18.954;2022-12-18T01:30:03;-2.20;99.90
64685;DHT22;51109;47.414;18.954;2022-12-18T01:32:30;-2.30;99.90
64685;DHT22;51109;47.414;18.954;2022-12-18T01:34:56;-2.20;99.90
64685;DHT22;51109;47.414;18.954;2022-12-18T01:37:22;-2.30;99.90
64685;DHT22;51109;47.414;18.954;2022-12-18T01:39:47;-2.30;99.90
64685;DHT22;51109;47.414;18.954;2022-12-18T01:42:16;-2.30;99.90
64685;DHT22;51109;47.414;18.954;2022-12-18T01:47:53;-2.30;99.90
64685;DHT22;51109;47.414;18.954;2022-12-18T01:50:30;-2.30;99.90
64685;DHT22;51109;47.414;18.954;2022-12-18T01:53:05;-2.30;99.90
64685;DHT22;51109;47.414;18.954;2022-12-18T01:55:40;-2.30;99.90
64685;DHT22;51109;47.414;18.954;2022-12-18T01:58:08;-2.30;99.90
64685;DHT22;51109;47.414;18.954;2022-12-18T02:03:01;-2.30;99.90
64685;DHT22;51109;47.414;18.954;2022-12-18T02:05:46;-2.30;99.90
64685;DHT22;51109;47.414;18.954;2022-12-18T02:18:42;-2.30;99.90
64685;DHT22;51109;47.414;18.954;2022-12-18T02:29:15;-2.30;99.90
64685;DHT22;51109;47.414;18.954;2022-12-18T02:31:53;-2.30;99.90
64685;DHT22;51109;47.414;18.954;2022-12-18T02:34:22;-2.40;99.90
64685;DHT22;51109;47.414;18.954;2022-12-18T02:36:50;-2.40;99.90
64685;DHT22;51109;47.414;18.954;2022-12-18T02:39:17;-2.40;99.90
64685;DHT22;51109;47.414;18.954;2022-12-18T02:41:44;-2.40;99.90
64685;DHT22;51109;47.414;18.954;2022-12-18T02:44:12;-2.40;99.90
64685;DHT22;51109;47.414;18.954;2022-12-18T02:46:43;-2.40;99.90
64685;DHT22;51109;47.414;18.954;2022-12-18T02:52:24;-2.50;99.90
64685;DHT22;51109;47.414;18.954;2022-12-18T03:00:28;-2.40;99.90
64685;DHT22;51109;47.414;18.954;2022-12-18T03:03:05;-2.40;99.90
64685;DHT22;51109;47.414;18.954;2022-12-18T03:05:45;-2.40;99.90
64685;DHT22;51109;47.414;18.954;2022-12-18T03:08:23;-2.40;99.90
64685;DHT22;51109;47.414;18.954;2022-12-18T03:13:32;-2.50;99.90
64685;DHT22;51109;47.414;18.954;2022-12-18T03:16:00;-2.50;99.90
64685;DHT22;51109;47.414;18.954;2022-12-18T03:18:37;-2.50;99.90
64685;DHT22;51109;47.414;18.954;2022-12-18T03:21:06;-2.50;99.90
64685;DHT22;51109;47.414;18.954;2022-12-18T03:23:44;-2.50;99.90
64685;DHT22;51109;47.414;18.954;2022-12-18T03:26:13;-2.50;99.90
64685;DHT22;51109;47.414;18.954;2022-12-18T03:28:43;-2.50;99.90
64685;DHT22;51109;47.414;18.954;2022-12-18T03:31:12;-2.50;99.90
64685;DHT22;51109;47.414;18.954;2022-12-18T03:34:09;-2.50;99.90
64685;DHT22;51109;47.414;18.954;2022-12-18T03:36:32;-2.50;99.90
64685;DHT22;51109;47.414;18.954;2022-12-18T03:38:58;-2.60;99.90
64685;DHT22;51109;47.414;18.954;2022-12-18T03:41:33;-2.60;99.90
64685;DHT22;51109;47.414;18.954;2022-12-18T03:44:19;-2.60;99.90
64685;DHT22;51109;47.414;18.954;2022-12-18T03:47:09;-2.60;99.90
64685;DHT22;51109;47.414;18.954;2022-12-18T03:50:14;-2.60;99.90
64685;DHT22;51109;47.414;18.954;2022-12-18T03:55:36;-2.60;99.90
64685;DHT22;51109;47.414;18.954;2022-12-18T03:58:03;-2.60;99.90
64685;DHT22;51109;47.414;18.954;2022-12-18T04:00:31;-2.70;99.90
64685;DHT22;51109;47.414;18.954;2022-12-18T04:03:00;-2.70;99.90
64685;DHT22;51109;47.414;18.954;2022-12-18T04:05:28;-2.60;99.90
64685;DHT22;51109;47.414;18.954;2022-12-18T04:07:56;-2.70;99.90
64685;DHT22;51109;47.414;18.954;2022-12-18T04:10:22;-2.70;99.90
64685;DHT22;51109;47.414;18.954;2022-12-18T04:12:48;-2.70;99.90
64685;DHT22;51109;47.414;18.954;2022-12-18T04:15:14;-2.70;99.90
64685;DHT22;51109;47.414;18.954;2022-12-18T04:17:47;-2.80;99.90
64685;DHT22;51109;47.414;18.954;2022-12-18T04:20:13;-2.80;99.90
64685;DHT22;51109;47.414;18.954;2022-12-18T04:22:40;-2.80;99.90
64685;DHT22;51109;47.414;18.954;2022-12-18T04:25:06;-2.80;99.90
64685;DHT22;51109;47.414;18.954;2022-12-18T04:27:32;-2.80;99.90
64685;DHT22;51109;47.414;18.954;2022-12-18T04:29:58;-2.70;99.90
64685;DHT22;51109;47.414;18.954;2022-12-18T04:32:24;-2.80;99.90
64685;DHT22;51109;47.414;18.954;2022-12-18T04:34:50;-2.80;99.90
64685;DHT22;51109;47.414;18.954;2022-12-18T04:37:16;-2.70;99.90
64685;DHT22;51109;47.414;18.954;2022-12-18T04:39:42;-2.80;99.90
64685;DHT22;51109;47.414;18.954;2022-12-18T04:42:08;-2.80;99.90
64685;DHT22;51109;47.414;18.954;2022-12-18T04:44:34;-2.80;99.90
64685;DHT22;51109;47.414;18.954;2022-12-18T04:47:00;-2.80;99.90
64685;DHT22;51109;47.414;18.954;2022-12-18T04:49:25;-2.80;99.90
64685;DHT22;51109;47.414;18.954;2022-12-18T04:51:51;-2.80;99.90
64685;DHT22;51109;47.414;18.954;2022-12-18T04:54:21;-2.90;99.90
64685;DHT22;51109;47.414;18.954;2022-12-18T04:56:47;-2.80;99.90
64685;DHT22;51109;47.414;18.954;2022-12-18T04:59:13;-2.90;99.90
64685;DHT22;51109;47.414;18.954;2022-12-18T05:01:39;-2.90;99.90
64685;DHT22;51109;47.414;18.954;2022-12-18T05:04:04;-2.90;99.90
64685;DHT22;51109;47.414;18.954;2022-12-18T05:06:30;-2.80;99.90
64685;DHT22;51109;47.414;18.954;2022-12-18T05:08:57;-2.90;99.90
64685;DHT22;51109;47.414;18.954;2022-12-18T05:11:23;-2.20;99.90
64685;DHT22;51109;47.414;18.954;2022-12-18T05:13:49;-2.90;99.90
64685;DHT22;51109;47.414;18.954;2022-12-18T05:16:15;-2.90;99.90
64685;DHT22;51109;47.414;18.954;2022-12-18T05:18:41;-3.50;99.90
64685;DHT22;51109;47.414;18.954;2022-12-18T05:21:08;-3.00;99.90
64685;DHT22;51109;47.414;18.954;2022-12-18T05:23:34;-3.00;99.90
64685;DHT22;51109;47.414;18.954;2022-12-18T05:26:02;-3.00;99.90
64685;DHT22;51109;47.414;18.954;2022-12-18T05:28:30;-3.10;99.90
64685;DHT22;51109;47.414;18.954;2022-12-18T05:30:58;-3.10;99.90
64685;DHT22;51109;47.414;18.954;2022-12-18T05:33:26;-3.10;99.90
64685;DHT22;51109;47.414;18.954;2022-12-18T05:35:53;-3.10;99.90
64685;DHT22;51109;47.414;18.954;2022-12-18T05:38:21;-3.10;99.90
64685;DHT22;51109;47.414;18.954;2022-12-18T05:40:51;-3.10;99.90
64685;DHT22;51109;47.414;18.954;2022-12-18T05:43:18;-3.10;99.90
64685;DHT22;51109;47.414;18.954;2022-12-18T05:45:45;-3.10;99.90
64685;DHT22;51109;47.414;18.954;2022-12-18T05:48:12;-3.10;99.90
64685;DHT22;51109;47.414;18.954;2022-12-18T05:50:39;-3.10;99.90
64685;DHT22;51109;47.414;18.954;2022-12-18T05:53:06;-3.10;99.90
64685;DHT22;51109;47.414;18.954;2022-12-18T05:55:36;-3.10;99.90
64685;DHT22;51109;47.414;18.954;2022-12-18T05:58:03;-3.10;99.90
64685;DHT22;51109;47.414;18.954;2022-12-18T06:00:31;-3.00;99.90
64685;DHT22;51109;47.414;18.954;2022-12-18T06:02:58;-3.00;99.90
64685;DHT22;51109;47.414;18.954;2022-12-18T06:05:25;-3.00;99.90
64685;DHT22;51109;47.414;18.954;2022-12-18T06:07:51;-3.00;99.90
64685;DHT22;51109;47.414;18.954;2022-12-18T06:10:17;-3.00;99.90
64685;DHT22;51109;47.414;18.954;2022-12-18T06:12:43;-3.00;99.90
64685;DHT22;51109;47.414;18.954;2022-12-18T06:15:09;-3.00;99.90
64685;DHT22;51109;47.414;18.954;2022-12-18T06:17:35;-3.10;99.90
64685;DHT22;51109;47.414;18.954;2022-12-18T06:20:01;-3.10;99.90
64685;DHT22;51109;47.414;18.954;2022-12-18T06:22:28;-3.10;99.90
64685;DHT22;51109;47.414;18.954;2022-12-18T06:24:55;-3.10;99.90
64685;DHT22;51109;47.414;18.954;2022-12-18T06:27:22;-3.10;99.90
64685;DHT22;51109;47.414;18.954;2022-12-18T06:29:47;-3.10;99.90
64685;DHT22;51109;47.414;18.954;2022-12-18T06:32:13;-3.20;99.90
64685;DHT22;51109;47.414;18.954;2022-12-18T06:34:39;-3.10;99.90
64685;DHT22;51109;47.414;18.954;2022-12-18T06:37:05;-3.20;99.90
64685;DHT22;51109;47.414;18.954;2022-12-18T06:39:31;-3.10;99.90
64685;DHT22;51109;47.414;18.954;2022-12-18T06:41:57;-3.70;99.90
64685;DHT22;51109;47.414;18.954;2022-12-18T06:44:23;-3.00;99.90
64685;DHT22;51109;47.414;18.954;2022-12-18T06:46:49;-3.00;99.90
64685;DHT22;51109;47.414;18.954;2022-12-18T06:49:15;-2.90;99.90
64685;DHT22;51109;47.414;18.954;2022-12-18T06:51:42;-2.90;99.90
64685;DHT22;51109;47.414;18.954;2022-12-18T06:54:08;-2.90;99.90
64685;DHT22;51109;47.414;18.954;2022-12-18T06:56:34;-2.90;99.90
64685;DHT22;51109;47.414;18.954;2022-12-18T06:59:00;-2.90;99.90
64685;DHT22;51109;47.414;18.954;2022-12-18T07:01:26;-2.80;99.90
64685;DHT22;51109;47.414;18.954;2022-12-18T07:03:54;-2.80;99.90
64685;DHT22;51109;47.414;18.954;2022-12-18T07:06:22;-2.80;99.90
64685;DHT22;51109;47.414;18.954;2022-12-18T07:08:50;-2.70;99.90
64685;DHT22;51109;47.414;18.954;2022-12-18T07:11:16;-2.70;99.90
64685;DHT22;51109;47.414;18.954;2022-12-18T07:13:43;-2.70;99.90
64685;DHT22;51109;47.414;18.954;2022-12-18T07:16:11;-2.70;99.90
64685;DHT22;51109;47.414;18.954;2022-12-18T07:18:38;-2.70;99.90
64685;DHT22;51109;47.414;18.954;2022-12-18T07:21:09;-2.60;99.90
64685;DHT22;51109;47.414;18.954;2022-12-18T07:23:35;-2.60;99.90
64685;DHT22;51109;47.414;18.954;2022-12-18T07:26:06;-2.50;99.90
64685;DHT22;51109;47.414;18.954;2022-12-18T07:28:33;-2.50;99.90
64685;DHT22;51109;47.414;18.954;2022-12-18T07:31:10;-2.40;99.90
64685;DHT22;51109;47.414;18.954;2022-12-18T07:33:37;-2.40;99.90
64685;DHT22;51109;47.414;18.954;2022-12-18T07:36:04;-2.30;99.90
64685;DHT22;51109;47.414;18.954;2022-12-18T07:38:31;-2.30;99.90
64685;DHT22;51109;47.414;18.954;2022-12-18T07:41:02;-2.30;99.90
64685;DHT22;51109;47.414;18.954;2022-12-18T07:43:28;-2.30;99.90
64685;DHT22;51109;47.414;18.954;2022-12-18T07:45:54;-2.30;99.90
64685;DHT22;51109;47.414;18.954;2022-12-18T07:48:20;-2.10;99.90
64685;DHT22;51109;47.414;18.954;2022-12-18T07:50:46;-2.20;99.90
64685;DHT22;51109;47.414;18.954;2022-12-18T07:53:12;-2.10;99.90
64685;DHT22;51109;47.414;18.954;2022-12-18T07:55:37;-2.10;99.90
64685;DHT22;51109;47.414;18.954;2022-12-18T07:58:04;-2.10;99.90
64685;DHT22;51109;47.414;18.954;2022-12-18T08:00:30;-2.00;99.90
64685;DHT22;51109;47.414;18.954;2022-12-18T08:02:57;-2.00;99.90
64685;DHT22;51109;47.414;18.954;2022-12-18T08:05:23;-1.90;99.90
64685;DHT22;51109;47.414;18.954;2022-12-18T08:07:49;-1.90;99.90
64685;DHT22;51109;47.414;18.954;2022-12-18T08:10:15;-1.80;99.90
64685;DHT22;51109;47.414;18.954;2022-12-18T08:12:41;-1.80;99.90
64685;DHT22;51109;47.414;18.954;2022-12-18T08:15:09;-1.70;99.90
64685;DHT22;51109;47.414;18.954;2022-12-18T08:17:35;-1.60;99.90
64685;DHT22;51109;47.414;18.954;2022-12-18T08:20:01;-1.60;99.90
64685;DHT22;51109;47.414;18.954;2022-12-18T08:22:27;-1.50;99.90
64685;DHT22;51109;47.414;18.954;2022-12-18T08:24:52;-1.50;99.90
64685;DHT22;51109;47.414;18.954;2022-12-18T08:27:18;-1.40;99.90
64685;DHT22;51109;47.414;18.954;2022-12-18T08:29:44;-1.40;99.90
64685;DHT22;51109;47.414;18.954;2022-12-18T08:32:10;-1.30;99.90
64685;DHT22;51109;47.414;18.954;2022-12-18T08:34:36;-1.20;99.90
64685;DHT22;51109;47.414;18.954;2022-12-18T08:37:02;-1.10;99.90
64685;DHT22;51109;47.414;18.954;2022-12-18T08:39:28;-0.90;99.90
64685;DHT22;51109;47.414;18.954;2022-12-18T08:41:55;-0.90;99.90
64685;DHT22;51109;47.414;18.954;2022-12-18T08:44:40;-0.90;99.90
64685;DHT22;51109;47.414;18.954;2022-12-18T08:47:07;-0.70;99.90
64685;DHT22;51109;47.414;18.954;2022-12-18T08:49:33;-0.60;99.90
64685;DHT22;51109;47.414;18.954;2022-12-18T08:52:00;-0.60;99.90
64685;DHT22;51109;47.414;18.954;2022-12-18T08:54:27;-0.50;99.90
64685;DHT22;51109;47.414;18.954;2022-12-18T08:56:53;-0.50;99.90
64685;DHT22;51109;47.414;18.954;2022-12-18T08:59:20;-0.40;99.90
64685;DHT22;51109;47.414;18.954;2022-12-18T09:01:46;-0.40;99.90
64685;DHT22;51109;47.414;18.954;2022-12-18T09:04:12;-0.40;99.90
64685;DHT22;51109;47.414;18.954;2022-12-18T09:06:39;-0.20;99.90
64685;DHT22;51109;47.414;18.954;2022-12-18T09:09:06;-0.10;99.90
64685;DHT22;51109;47.414;18.954;2022-12-18T09:11:32;-0.10;99.90
64685;DHT22;51109;47.414;18.954;2022-12-18T09:14:00;0.00;99.90
64685;DHT22;51109;47.414;18.954;2022-12-18T09:16:27;0.00;99.90
64685;DHT22;51109;47.414;18.954;2022-12-18T09:18:56;0.10;99.90
64685;DHT22;51109;47.414;18.954;2022-12-18T09:21:26;-0.10;99.90
64685;DHT22;51109;47.414;18.954;2022-12-18T09:23:54;0.10;99.90
64685;DHT22;51109;47.414;18.954;2022-12-18T09:26:22;0.20;99.90
64685;DHT22;51109;47.414;18.954;2022-12-18T09:28:49;0.20;99.90
64685;DHT22;51109;47.414;18.954;2022-12-18T09:31:15;0.20;99.90
64685;DHT22;51109;47.414;18.954;2022-12-18T09:33:44;0.40;99.90
64685;DHT22;51109;47.414;18.954;2022-12-18T09:36:13;0.40;99.90
64685;DHT22;51109;47.414;18.954;2022-12-18T09:38:39;0.40;99.90
64685;DHT22;51109;47.414;18.954;2022-12-18T09:44:18;0.50;99.90
64685;DHT22;51109;47.414;18.954;2022-12-18T09:47:10;0.70;99.90
64685;DHT22;51109;47.414;18.954;2022-12-18T09:49:40;0.60;99.90
64685;DHT22;51109;47.414;18.954;2022-12-18T09:52:25;0.50;99.90
64685;DHT22;51109;47.414;18.954;2022-12-18T09:57:36;0.60;99.90
64685;DHT22;51109;47.414;18.954;2022-12-18T10:00:21;0.50;99.90
64685;DHT22;51109;47.414;18.954;2022-12-18T10:02:48;0.70;99.90
64685;DHT22;51109;47.414;18.954;2022-12-18T10:05:20;0.90;99.90
64685;DHT22;51109;47.414;18.954;2022-12-18T10:17:02;1.40;99.90
64685;DHT22;51109;47.414;18.954;2022-12-18T10:19:34;1.50;99.90
64685;DHT22;51109;47.414;18.954;2022-12-18T10:22:19;1.50;99.90
64685;DHT22;51109;47.414;18.954;2022-12-18T10:24:59;1.60;99.90
64685;DHT22;51109;47.414;18.954;2022-12-18T10:27:27;1.50;99.90
64685;DHT22;51109;47.414;18.954;2022-12-18T10:29:54;1.50;99.90
64685;DHT22;51109;47.414;18.954;2022-12-18T10:32:25;1.60;99.90
64685;DHT22;51109;47.414;18.954;2022-12-18T10:34:55;1.70;99.90
64685;DHT22;51109;47.414;18.954;2022-12-18T10:37:25;1.60;99.90
64685;DHT22;51109;47.414;18.954;2022-12-18T10:40:11;1.60;99.90
64685;DHT22;51109;47.414;18.954;2022-12-18T10:42:37;1.70;99.90
64685;DHT22;51109;47.414;18.954;2022-12-18T10:45:15;1.80;99.90
64685;DHT22;51109;47.414;18.954;2022-12-18T10:47:48;1.80;99.90
64685;DHT22;51109;47.414;18.954;2022-12-18T10:50:45;2.00;99.90
64685;DHT22;51109;47.414;18.954;2022-12-18T10:53:23;1.90;99.90
64685;DHT22;51109;47.414;18.954;2022-12-18T10:55:52;1.90;99.90
64685;DHT22;51109;47.414;18.954;2022-12-18T10:58:30;2.10;99.90
64685;DHT22;51109;47.414;18.954;2022-12-18T11:03:33;2.00;99.90
64685;DHT22;51109;47.414;18.954;2022-12-18T11:08:29;2.10;99.90
64685;DHT22;51109;47.414;18.954;2022-12-18T11:10:55;2.40;99.90
64685;DHT22;51109;47.414;18.954;2022-12-18T11:13:23;2.50;99.90
64685;DHT22;51109;47.414;18.954;2022-12-18T11:15:50;2.30;99.90
64685;DHT22;51109;47.414;18.954;2022-12-18T11:18:38;2.20;99.90
64685;DHT22;51109;47.414;18.954;2022-12-18T11:21:11;2.30;99.90
64685;DHT22;51109;47.414;18.954;2022-12-18T11:23:47;2.40;99.90
64685;DHT22;51109;47.414;18.954;2022-12-18T11:26:15;2.50;99.90
64685;DHT22;51109;47.414;18.954;2022-12-18T11:28:47;2.60;99.90
64685;DHT22;51109;47.414;18.954;2022-12-18T11:33:43;2.60;99.90
64685;DHT22;51109;47.414;18.954;2022-12-18T11:36:12;2.80;99.90
64685;DHT22;51109;47.414;18.954;2022-12-18T11:38:42;2.70;99.90
64685;DHT22;51109;47.414;18.954;2022-12-18T11:41:25;2.70;99.90
64685;DHT22;51109;47.414;18.954;2022-12-18T11:44:18;2.70;99.90
64685;DHT22;51109;47.414;18.954;2022-12-18T11:46:51;2.80;99.90
64685;DHT22;51109;47.414;18.954;2022-12-18T11:49:27;2.90;99.90
64685;DHT22;51109;47.414;18.954;2022-12-18T11:52:03;3.00;99.90
64685;DHT22;51109;47.414;18.954;2022-12-18T11:54:29;3.00;99.90
64685;DHT22;51109;47.414;18.954;2022-12-18T11:57:02;3.10;99.90
64685;DHT22;51109;47.414;18.954;2022-12-18T12:05:00;3.30;99.90
64685;DHT22;51109;47.414;18.954;2022-12-18T12:07:50;3.40;99.90
64685;DHT22;51109;47.414;18.954;2022-12-18T12:16:22;3.30;99.90
64685;DHT22;51109;47.414;18.954;2022-12-18T12:40:01;3.10;99.90
64685;DHT22;51109;47.414;18.954;2022-12-18T12:42:41;3.10;99.90
64685;DHT22;51109;47.414;18.954;2022-12-18T12:48:27;3.00;99.90
64685;DHT22;51109;47.414;18.954;2022-12-18T12:50:57;3.00;99.90
64685;DHT22;51109;47.414;18.954;2022-12-18T12:53:33;3.00;99.90
64685;DHT22;51109;47.414;18.954;2022-12-18T12:56:01;3.10;99.90
64685;DHT22;51109;47.414;18.954;2022-12-18T12:58:41;3.00;99.90
64685;DHT22;51109;47.414;18.954;2022-12-18T13:04:00;3.00;99.90
64685;DHT22;51109;47.414;18.954;2022-12-18T13:08:57;3.00;99.90
64685;DHT22;51109;47.414;18.954;2022-12-18T13:11:43;2.90;99.90
64685;DHT22;51109;47.414;18.954;2022-12-18T13:14:37;2.80;99.90
64685;DHT22;51109;47.414;18.954;2022-12-18T13:20:14;2.80;99.90
64685;DHT22;51109;47.414;18.954;2022-12-18T13:25:27;2.80;99.90
64685;DHT22;51109;47.414;18.954;2022-12-18T13:28:04;2.80;99.90
64685;DHT22;51109;47.414;18.954;2022-12-18T13:36:54;2.80;99.90
64685;DHT22;51109;47.414;18.954;2022-12-18T13:38:46;2.80;99.90
64685;DHT22;51109;47.414;18.954;2022-12-18T13:41:25;2.70;99.90
64685;DHT22;51109;47.414;18.954;2022-12-18T13:43:55;2.80;99.90
64685;DHT22;51109;47.414;18.954;2022-12-18T13:46:48;2.60;99.90
64685;DHT22;51109;47.414;18.954;2022-12-18T13:52:03;2.50;99.90
64685;DHT22;51109;47.414;18.954;2022-12-18T13:54:40;2.40;99.90
64685;DHT22;51109;47.414;18.954;2022-12-18T13:59:52;2.10;99.90
64685;DHT22;51109;47.414;18.954;2022-12-18T14:02:25;2.10;99.90
64685;DHT22;51109;47.414;18.954;2022-12-18T14:04:52;2.00;99.90
64685;DHT22;51109;47.414;18.954;2022-12-18T14:07:26;1.90;99.90
64685;DHT22;51109;47.414;18.954;2022-12-18T14:09:55;1.90;99.90
64685;DHT22;51109;47.414;18.954;2022-12-18T14:12:33;1.80;99.90
64685;DHT22;51109;47.414;18.954;2022-12-18T14:20:54;1.70;99.90
64685;DHT22;51109;47.414;18.954;2022-12-18T14:23:39;1.70;99.90
64685;DHT22;51109;47.414;18.954;2022-12-18T14:28:50;1.60;99.90
64685;DHT22;51109;47.414;18.954;2022-12-18T14:31:20;1.50;99.90
64685;DHT22;51109;47.414;18.954;2022-12-18T14:33:47;1.40;99.90
64685;DHT22;51109;47.414;18.954;2022-12-18T14:36:17;1.40;99.90
64685;DHT22;51109;47.414;18.954;2022-12-18T14:38:43;1.30;99.90
64685;DHT22;51109;47.414;18.954;2022-12-18T14:41:15;1.30;99.90
64685;DHT22;51109;47.414;18.954;2022-12-18T14:43:43;1.20;99.90
64685;DHT22;51109;47.414;18.954;2022-12-18T14:46:34;1.20;99.90
64685;DHT22;51109;47.414;18.954;2022-12-18T14:52:27;0.80;99.90
64685;DHT22;51109;47.414;18.954;2022-12-18T14:54:54;0.60;99.90
64685;DHT22;51109;47.414;18.954;2022-12-18T14:57:25;0.50;99.90
64685;DHT22;51109;47.414;18.954;2022-12-18T15:00:04;0.40;99.90
64685;DHT22;51109;47.414;18.954;2022-12-18T15:02:30;0.20;99.90
64685;DHT22;51109;47.414;18.954;2022-12-18T15:07:26;0.00;99.90
64685;DHT22;51109;47.414;18.954;2022-12-18T15:12:36;-0.10;99.90
64685;DHT22;51109;47.414;18.954;2022-12-18T15:15:04;-0.20;99.90
64685;DHT22;51109;47.414;18.954;2022-12-18T15:17:31;-0.20;99.90
64685;DHT22;51109;47.414;18.954;2022-12-18T15:20:03;-0.30;99.90
64685;DHT22;51109;47.414;18.954;2022-12-18T15:22:35;-0.40;99.90
64685;DHT22;51109;47.414;18.954;2022-12-18T15:25:03;0.30;99.90
64685;DHT22;51109;47.414;18.954;2022-12-18T15:27:46;-0.50;99.90
64685;DHT22;51109;47.414;18.954;2022-12-18T15:30:21;-0.50;99.90
64685;DHT22;51109;47.414;18.954;2022-12-18T15:32:48;-0.50;99.90
64685;DHT22;51109;47.414;18.954;2022-12-18T15:37:41;-0.50;99.90
64685;DHT22;51109;47.414;18.954;2022-12-18T15:40:11;-0.60;99.90
64685;DHT22;51109;47.414;18.954;2022-12-18T15:42:37;-0.60;99.90
64685;DHT22;51109;47.414;18.954;2022-12-18T15:45:22;0.60;99.90
64685;DHT22;51109;47.414;18.954;2022-12-18T15:47:48;-0.50;99.90
64685;DHT22;51109;47.414;18.954;2022-12-18T15:50:14;-0.50;99.90
64685;DHT22;51109;47.414;18.954;2022-12-18T15:52:44;-0.50;99.90
64685;DHT22;51109;47.414;18.954;2022-12-18T15:55:13;-0.60;99.90
64685;DHT22;51109;47.414;18.954;2022-12-18T15:57:58;-0.70;99.90
64685;DHT22;51109;47.414;18.954;2022-12-18T16:00:24;-0.80;99.90
64685;DHT22;51109;47.414;18.954;2022-12-18T16:02:51;-0.80;99.90
64685;DHT22;51109;47.414;18.954;2022-12-18T16:05:18;-0.80;99.90
64685;DHT22;51109;47.414;18.954;2022-12-18T16:07:46;-0.90;99.90
64685;DHT22;51109;47.414;18.954;2022-12-18T16:10:13;-0.90;99.90
64685;DHT22;51109;47.414;18.954;2022-12-18T16:12:39;-0.90;99.90
64685;DHT22;51109;47.414;18.954;2022-12-18T16:15:07;-0.90;99.90
64685;DHT22;51109;47.414;18.954;2022-12-18T16:17:33;-0.90;99.90
64685;DHT22;51109;47.414;18.954;2022-12-18T16:19:59;-1.00;99.90
64685;DHT22;51109;47.414;18.954;2022-12-18T16:22:28;-0.90;99.90
64685;DHT22;51109;47.414;18.954;2022-12-18T16:24:55;-0.90;99.90
64685;DHT22;51109;47.414;18.954;2022-12-18T16:27:23;-0.90;99.90
64685;DHT22;51109;47.414;18.954;2022-12-18T16:29:50;-1.00;99.90
64685;DHT22;51109;47.414;18.954;2022-12-18T16:32:18;-0.90;99.90
64685;DHT22;51109;47.414;18.954;2022-12-18T16:34:45;-1.00;99.90
64685;DHT22;51109;47.414;18.954;2022-12-18T16:37:13;-1.00;99.90
64685;DHT22;51109;47.414;18.954;2022-12-18T16:39:40;-1.10;99.90
64685;DHT22;51109;47.414;18.954;2022-12-18T16:42:10;-1.30;99.90
64685;DHT22;51109;47.414;18.954;2022-12-18T16:44:42;-1.20;99.90
64685;DHT22;51109;47.414;18.954;2022-12-18T16:47:09;-1.30;99.90
64685;DHT22;51109;47.414;18.954;2022-12-18T16:49:35;-1.30;99.90
64685;DHT22;51109;47.414;18.954;2022-12-18T16:52:03;-1.20;99.90
64685;DHT22;51109;47.414;18.954;2022-12-18T16:54:29;-1.20;99.90
64685;DHT22;51109;47.414;18.954;2022-12-18T16:56:56;-1.30;99.90
64685;DHT22;51109;47.414;18.954;2022-12-18T16:59:22;-1.30;99.90
64685;DHT22;51109;47.414;18.954;2022-12-18T17:01:48;-1.30;99.90
64685;DHT22;51109;47.414;18.954;2022-12-18T17:04:14;-1.30;99.90
64685;DHT22;51109;47.414;18.954;2022-12-18T17:06:43;-1.30;99.90
64685;DHT22;51109;47.414;18.954;2022-12-18T17:09:12;-1.40;99.90
64685;DHT22;51109;47.414;18.954;2022-12-18T17:11:42;-1.40;99.90
64685;DHT22;51109;47.414;18.954;2022-12-18T17:14:12;-1.50;99.90
64685;DHT22;51109;47.414;18.954;2022-12-18T17:16:40;-1.50;99.90
64685;DHT22;51109;47.414;18.954;2022-12-18T17:19:06;-1.50;99.90
64685;DHT22;51109;47.414;18.954;2022-12-18T17:21:33;-1.60;99.90
64685;DHT22;51109;47.414;18.954;2022-12-18T17:24:00;-1.60;99.90
64685;DHT22;51109;47.414;18.954;2022-12-18T17:26:28;-1.60;99.90
64685;DHT22;51109;47.414;18.954;2022-12-18T17:28:58;-1.60;99.90
64685;DHT22;51109;47.414;18.954;2022-12-18T17:31:27;-1.60;99.90
64685;DHT22;51109;47.414;18.954;2022-12-18T17:33:53;-1.70;99.90
64685;DHT22;51109;47.414;18.954;2022-12-18T17:36:19;-1.60;99.90
64685;DHT22;51109;47.414;18.954;2022-12-18T17:38:56;-1.70;99.90
64685;DHT22;51109;47.414;18.954;2022-12-18T17:41:24;-1.80;99.90
64685;DHT22;51109;47.414;18.954;2022-12-18T17:43:54;-1.60;99.90
64685;DHT22;51109;47.414;18.954;2022-12-18T17:46:21;-1.50;99.90
64685;DHT22;51109;47.414;18.954;2022-12-18T17:48:48;-1.50;99.90
64685;DHT22;51109;47.414;18.954;2022-12-18T17:51:14;-1.50;99.90
64685;DHT22;51109;47.414;18.954;2022-12-18T17:53:40;-1.40;99.90